Accueil
METAR-TAF:

METAR-TAF

Aéroports :

Aviano Air Base

Aviano, Italie

latitude: 46-02N, longitude: 012-36E, altitude: 128 m

Observation

Le bulletin a été fait il y a 1 heure et 9 minutes, à 17:55 UTC
Vent 5 kt de sud-est
Température 7°C
Humidité 39%
Pression 1021 hPa
Visibilité 10 km ou plus
Nuages épars à une hauteur de 9000 ft

METAR: LIPA 311755Z 13005KT 9999 SCT090 07/M06 Q1021 RMK SCT VIS MIN 9999 WIND THR05 /////KT WIND THR23 /////KT A3017 BLU

Heure: 21:04 (19:04 UTC)

Prévision

Le bulletin a été fait il y a 2 heures et 4 minutes, à 17:00 UTC
Prévision valable du 31 à 18 UTC au 01 à 03 UTC
Vent 5 kt de nord-est
Visibilité 10 km ou plus
Nuages épars à une hauteur de 6000 ft

TAF: LIPA 311700Z 3118/0103 04005KT 9999 SCT060

Observations et prévisions météorologiques de plus de 4000 aéroports (messages METAR et TAF).

Les stations disponibles sont représentées par des disques jaunes et rouges sur la carte.

Passer la souris dessus pour voir le nom de la station.

Cliquer dessus pour voir les observations et prévisions météorologiques.

Pour changer de carte: cliquez sur les boutons verts avec une croix noire pour zoomer, sur le bouton vert avec un tiret pour effectuer un zoom arrière, ou sur les flèches vertes pour les cartes adjacentes.


METAR-TAF: